sensor_id;sensor_type;location;lat;lon;timestamp;P1;durP1;ratioP1;P2;durP2;ratioP2
17991;SDS011;9121;50.926;5.340;2023-04-24T00:00:45;17.33;;;7.97;;
17991;SDS011;9121;50.926;5.340;2023-04-24T00:03:12;19.20;;;9.13;;
17991;SDS011;9121;50.926;5.340;2023-04-24T00:05:39;18.43;;;10.10;;
17991;SDS011;9121;50.926;5.340;2023-04-24T00:08:06;20.60;;;9.73;;
17991;SDS011;9121;50.926;5.340;2023-04-24T00:10:34;20.87;;;10.10;;
17991;SDS011;9121;50.926;5.340;2023-04-24T00:13:01;17.93;;;9.57;;
17991;SDS011;9121;50.926;5.340;2023-04-24T00:15:28;18.63;;;10.07;;
17991;SDS011;9121;50.926;5.340;2023-04-24T00:17:56;21.80;;;9.37;;
17991;SDS011;9121;50.926;5.340;2023-04-24T00:20:23;17.80;;;9.60;;
17991;SDS011;9121;50.926;5.340;2023-04-24T00:22:49;14.70;;;8.83;;
17991;SDS011;9121;50.926;5.340;2023-04-24T00:25:16;20.40;;;9.87;;
17991;SDS011;9121;50.926;5.340;2023-04-24T00:27:45;22.63;;;10.40;;
17991;SDS011;9121;50.926;5.340;2023-04-24T00:30:12;25.57;;;10.27;;
17991;SDS011;9121;50.926;5.340;2023-04-24T00:32:39;21.87;;;10.77;;
17991;SDS011;9121;50.926;5.340;2023-04-24T00:35:06;22.00;;;10.33;;
17991;SDS011;9121;50.926;5.340;2023-04-24T00:37:33;20.13;;;11.20;;
17991;SDS011;9121;50.926;5.340;2023-04-24T00:40:00;24.20;;;12.07;;
17991;SDS011;9121;50.926;5.340;2023-04-24T00:42:28;20.40;;;11.87;;
17991;SDS011;9121;50.926;5.340;2023-04-24T00:44:57;32.07;;;12.60;;
17991;SDS011;9121;50.926;5.340;2023-04-24T00:47:24;21.40;;;12.30;;
17991;SDS011;9121;50.926;5.340;2023-04-24T00:49:51;25.33;;;12.00;;
17991;SDS011;9121;50.926;5.340;2023-04-24T00:52:18;21.33;;;12.20;;
17991;SDS011;9121;50.926;5.340;2023-04-24T00:54:45;24.50;;;13.17;;
17991;SDS011;9121;50.926;5.340;2023-04-24T00:57:13;29.83;;;13.43;;
17991;SDS011;9121;50.926;5.340;2023-04-24T00:59:40;24.53;;;12.47;;
17991;SDS011;9121;50.926;5.340;2023-04-24T01:02:10;25.17;;;13.43;;
17991;SDS011;9121;50.926;5.340;2023-04-24T01:04:38;27.80;;;12.73;;
17991;SDS011;9121;50.926;5.340;2023-04-24T01:07:05;26.20;;;13.07;;
17991;SDS011;9121;50.926;5.340;2023-04-24T01:09:35;26.97;;;13.43;;
17991;SDS011;9121;50.926;5.340;2023-04-24T01:12:03;29.93;;;12.77;;
17991;SDS011;9121;50.926;5.340;2023-04-24T01:14:30;28.00;;;13.20;;
17991;SDS011;9121;50.926;5.340;2023-04-24T01:16:57;19.83;;;12.30;;
17991;SDS011;9121;50.926;5.340;2023-04-24T01:19:26;27.00;;;13.60;;
17991;SDS011;9121;50.926;5.340;2023-04-24T01:21:54;26.40;;;13.50;;
17991;SDS011;9121;50.926;5.340;2023-04-24T01:24:28;28.03;;;13.80;;
17991;SDS011;9121;50.926;5.340;2023-04-24T01:26:56;25.03;;;13.43;;
17991;SDS011;9121;50.926;5.340;2023-04-24T01:29:23;29.70;;;12.63;;
17991;SDS011;9121;50.926;5.340;2023-04-24T01:31:50;30.53;;;12.33;;
17991;SDS011;9121;50.926;5.340;2023-04-24T01:34:18;25.77;;;12.90;;
17991;SDS011;9121;50.926;5.340;2023-04-24T01:36:45;25.03;;;13.27;;
17991;SDS011;9121;50.926;5.340;2023-04-24T01:39:12;32.90;;;12.50;;
17991;SDS011;9121;50.926;5.340;2023-04-24T01:41:42;27.23;;;12.07;;
17991;SDS011;9121;50.926;5.340;2023-04-24T01:44:08;31.67;;;12.83;;
17991;SDS011;9121;50.926;5.340;2023-04-24T01:46:36;23.67;;;12.20;;
17991;SDS011;9121;50.926;5.340;2023-04-24T01:49:03;26.07;;;12.47;;
17991;SDS011;9121;50.926;5.340;2023-04-24T01:51:30;30.17;;;11.77;;
17991;SDS011;9121;50.926;5.340;2023-04-24T01:53:57;33.33;;;12.53;;
17991;SDS011;9121;50.926;5.340;2023-04-24T01:56:24;24.83;;;12.50;;
17991;SDS011;9121;50.926;5.340;2023-04-24T01:58:56;20.93;;;11.63;;
17991;SDS011;9121;50.926;5.340;2023-04-24T02:01:23;27.47;;;12.27;;
17991;SDS011;9121;50.926;5.340;2023-04-24T02:03:50;25.37;;;13.07;;
17991;SDS011;9121;50.926;5.340;2023-04-24T02:06:17;28.03;;;13.67;;
17991;SDS011;9121;50.926;5.340;2023-04-24T02:08:44;28.53;;;14.20;;
17991;SDS011;9121;50.926;5.340;2023-04-24T02:11:11;32.10;;;14.43;;
17991;SDS011;9121;50.926;5.340;2023-04-24T02:13:38;30.87;;;13.93;;
17991;SDS011;9121;50.926;5.340;2023-04-24T02:16:06;33.67;;;14.67;;
17991;SDS011;9121;50.926;5.340;2023-04-24T02:18:33;26.93;;;15.77;;
17991;SDS011;9121;50.926;5.340;2023-04-24T02:21:00;30.77;;;15.20;;
17991;SDS011;9121;50.926;5.340;2023-04-24T02:23:27;38.70;;;15.87;;
17991;SDS011;9121;50.926;5.340;2023-04-24T02:25:54;31.93;;;15.83;;
17991;SDS011;9121;50.926;5.340;2023-04-24T02:28:21;29.10;;;16.43;;
17991;SDS011;9121;50.926;5.340;2023-04-24T02:30:48;23.87;;;14.73;;
17991;SDS011;9121;50.926;5.340;2023-04-24T02:33:17;28.93;;;15.93;;
17991;SDS011;9121;50.926;5.340;2023-04-24T02:35:44;27.97;;;15.13;;
17991;SDS011;9121;50.926;5.340;2023-04-24T02:38:11;29.47;;;14.80;;
17991;SDS011;9121;50.926;5.340;2023-04-24T02:40:38;33.37;;;14.97;;
17991;SDS011;9121;50.926;5.340;2023-04-24T02:43:05;22.73;;;13.30;;
17991;SDS011;9121;50.926;5.340;2023-04-24T02:45:31;28.37;;;12.73;;
17991;SDS011;9121;50.926;5.340;2023-04-24T02:47:59;25.53;;;13.40;;
17991;SDS011;9121;50.926;5.340;2023-04-24T02:50:28;24.90;;;13.20;;
17991;SDS011;9121;50.926;5.340;2023-04-24T02:52:54;28.30;;;14.00;;
17991;SDS011;9121;50.926;5.340;2023-04-24T02:55:21;24.37;;;13.10;;
17991;SDS011;9121;50.926;5.340;2023-04-24T02:57:48;26.70;;;13.80;;
17991;SDS011;9121;50.926;5.340;2023-04-24T03:00:15;22.70;;;13.23;;
17991;SDS011;9121;50.926;5.340;2023-04-24T03:02:42;28.23;;;14.17;;
17991;SDS011;9121;50.926;5.340;2023-04-24T03:05:09;25.83;;;13.80;;
17991;SDS011;9121;50.926;5.340;2023-04-24T03:07:38;23.60;;;13.23;;
17991;SDS011;9121;50.926;5.340;2023-04-24T03:10:05;20.83;;;12.83;;
17991;SDS011;9121;50.926;5.340;2023-04-24T03:12:33;24.83;;;14.00;;
17991;SDS011;9121;50.926;5.340;2023-04-24T03:15:00;22.50;;;13.23;;
17991;SDS011;9121;50.926;5.340;2023-04-24T03:17:27;24.43;;;13.93;;
17991;SDS011;9121;50.926;5.340;2023-04-24T03:19:54;22.97;;;14.13;;
17991;SDS011;9121;50.926;5.340;2023-04-24T03:22:21;28.77;;;14.30;;
17991;SDS011;9121;50.926;5.340;2023-04-24T03:24:49;29.97;;;14.83;;
17991;SDS011;9121;50.926;5.340;2023-04-24T03:27:16;23.97;;;13.70;;
17991;SDS011;9121;50.926;5.340;2023-04-24T03:29:43;26.70;;;13.40;;
17991;SDS011;9121;50.926;5.340;2023-04-24T03:32:10;26.93;;;13.40;;
17991;SDS011;9121;50.926;5.340;2023-04-24T03:34:37;26.57;;;12.90;;
17991;SDS011;9121;50.926;5.340;2023-04-24T03:37:03;26.20;;;13.90;;
17991;SDS011;9121;50.926;5.340;2023-04-24T03:39:30;25.77;;;13.30;;
17991;SDS011;9121;50.926;5.340;2023-04-24T03:41:59;24.10;;;13.07;;
17991;SDS011;9121;50.926;5.340;2023-04-24T03:44:26;21.00;;;12.50;;
17991;SDS011;9121;50.926;5.340;2023-04-24T03:46:53;25.63;;;13.50;;
17991;SDS011;9121;50.926;5.340;2023-04-24T03:49:20;29.50;;;13.33;;
17991;SDS011;9121;50.926;5.340;2023-04-24T03:51:47;25.27;;;12.83;;
17991;SDS011;9121;50.926;5.340;2023-04-24T03:54:13;22.13;;;12.77;;
17991;SDS011;9121;50.926;5.340;2023-04-24T03:56:40;19.80;;;11.70;;
17991;SDS011;9121;50.926;5.340;2023-04-24T03:59:09;22.27;;;13.07;;
17991;SDS011;9121;50.926;5.340;2023-04-24T04:01:36;23.53;;;13.10;;
17991;SDS011;9121;50.926;5.340;2023-04-24T04:04:04;27.00;;;13.63;;
17991;SDS011;9121;50.926;5.340;2023-04-24T04:06:31;22.27;;;12.93;;
17991;SDS011;9121;50.926;5.340;2023-04-24T04:08:58;23.50;;;12.30;;
17991;SDS011;9121;50.926;5.340;2023-04-24T04:11:25;21.63;;;12.77;;
17991;SDS011;9121;50.926;5.340;2023-04-24T04:13:52;22.33;;;11.73;;
17991;SDS011;9121;50.926;5.340;2023-04-24T04:16:21;19.53;;;11.87;;
17991;SDS011;9121;50.926;5.340;2023-04-24T04:18:48;22.87;;;12.03;;
17991;SDS011;9121;50.926;5.340;2023-04-24T04:21:15;26.53;;;11.20;;
17991;SDS011;9121;50.926;5.340;2023-04-24T04:23:41;18.57;;;10.73;;
17991;SDS011;9121;50.926;5.340;2023-04-24T04:26:08;22.17;;;11.17;;
17991;SDS011;9121;50.926;5.340;2023-04-24T04:28:35;21.83;;;11.53;;
17991;SDS011;9121;50.926;5.340;2023-04-24T04:31:03;21.30;;;10.67;;
17991;SDS011;9121;50.926;5.340;2023-04-24T04:33:31;23.80;;;11.33;;
17991;SDS011;9121;50.926;5.340;2023-04-24T04:35:58;21.50;;;11.33;;
17991;SDS011;9121;50.926;5.340;2023-04-24T04:38:25;21.80;;;11.20;;
17991;SDS011;9121;50.926;5.340;2023-04-24T04:40:55;22.40;;;12.37;;
17991;SDS011;9121;50.926;5.340;2023-04-24T04:43:22;23.20;;;11.10;;
17991;SDS011;9121;50.926;5.340;2023-04-24T04:45:50;23.40;;;11.00;;
17991;SDS011;9121;50.926;5.340;2023-04-24T04:48:17;19.07;;;11.53;;
17991;SDS011;9121;50.926;5.340;2023-04-24T04:50:45;20.00;;;10.53;;
17991;SDS011;9121;50.926;5.340;2023-04-24T04:53:12;17.27;;;11.03;;
17991;SDS011;9121;50.926;5.340;2023-04-24T04:55:40;21.90;;;11.37;;
17991;SDS011;9121;50.926;5.340;2023-04-24T04:58:07;24.40;;;11.87;;
17991;SDS011;9121;50.926;5.340;2023-04-24T05:00:34;22.57;;;12.43;;
17991;SDS011;9121;50.926;5.340;2023-04-24T05:03:02;24.20;;;11.17;;
17991;SDS011;9121;50.926;5.340;2023-04-24T05:05:29;21.87;;;12.03;;
17991;SDS011;9121;50.926;5.340;2023-04-24T05:07:57;22.13;;;11.13;;
17991;SDS011;9121;50.926;5.340;2023-04-24T05:10:24;19.27;;;10.97;;
17991;SDS011;9121;50.926;5.340;2023-04-24T05:12:51;19.70;;;10.13;;
17991;SDS011;9121;50.926;5.340;2023-04-24T05:15:18;22.73;;;11.10;;
17991;SDS011;9121;50.926;5.340;2023-04-24T05:17:45;16.87;;;11.10;;
17991;SDS011;9121;50.926;5.340;2023-04-24T05:20:12;21.17;;;11.40;;
17991;SDS011;9121;50.926;5.340;2023-04-24T05:22:39;19.53;;;11.57;;
17991;SDS011;9121;50.926;5.340;2023-04-24T05:25:08;18.70;;;11.37;;
17991;SDS011;9121;50.926;5.340;2023-04-24T05:27:35;18.53;;;10.93;;
17991;SDS011;9121;50.926;5.340;2023-04-24T05:30:02;18.03;;;10.80;;
17991;SDS011;9121;50.926;5.340;2023-04-24T05:32:30;23.80;;;11.43;;
17991;SDS011;9121;50.926;5.340;2023-04-24T05:34:57;18.37;;;9.87;;
17991;SDS011;9121;50.926;5.340;2023-04-24T05:37:24;23.47;;;10.47;;
17991;SDS011;9121;50.926;5.340;2023-04-24T05:39:51;18.40;;;9.63;;
17991;SDS011;9121;50.926;5.340;2023-04-24T05:42:19;19.20;;;10.00;;
17991;SDS011;9121;50.926;5.340;2023-04-24T05:44:46;18.57;;;9.77;;
17991;SDS011;9121;50.926;5.340;2023-04-24T05:47:13;17.30;;;8.83;;
17991;SDS011;9121;50.926;5.340;2023-04-24T05:49:40;16.43;;;9.37;;
17991;SDS011;9121;50.926;5.340;2023-04-24T05:52:07;12.30;;;7.03;;
17991;SDS011;9121;50.926;5.340;2023-04-24T05:54:34;10.10;;;6.53;;
17991;SDS011;9121;50.926;5.340;2023-04-24T05:57:01;16.63;;;6.20;;
17991;SDS011;9121;50.926;5.340;2023-04-24T05:59:34;10.03;;;6.37;;
17991;SDS011;9121;50.926;5.340;2023-04-24T06:02:02;11.67;;;6.67;;
17991;SDS011;9121;50.926;5.340;2023-04-24T06:04:29;11.83;;;7.83;;
17991;SDS011;9121;50.926;5.340;2023-04-24T06:06:56;15.77;;;8.17;;
17991;SDS011;9121;50.926;5.340;2023-04-24T06:09:23;14.37;;;8.40;;
17991;SDS011;9121;50.926;5.340;2023-04-24T06:11:50;17.90;;;9.70;;
17991;SDS011;9121;50.926;5.340;2023-04-24T06:14:17;22.70;;;10.10;;
17991;SDS011;9121;50.926;5.340;2023-04-24T06:16:46;20.83;;;10.07;;
17991;SDS011;9121;50.926;5.340;2023-04-24T06:19:13;18.67;;;9.27;;
17991;SDS011;9121;50.926;5.340;2023-04-24T06:21:40;16.30;;;9.43;;
17991;SDS011;9121;50.926;5.340;2023-04-24T06:24:07;21.53;;;9.43;;
17991;SDS011;9121;50.926;5.340;2023-04-24T06:26:34;18.43;;;9.90;;
17991;SDS011;9121;50.926;5.340;2023-04-24T06:29:01;23.03;;;10.00;;
17991;SDS011;9121;50.926;5.340;2023-04-24T06:31:28;16.67;;;9.43;;
17991;SDS011;9121;50.926;5.340;2023-04-24T06:33:56;22.43;;;9.53;;
17991;SDS011;9121;50.926;5.340;2023-04-24T06:36:23;19.77;;;9.57;;
17991;SDS011;9121;50.926;5.340;2023-04-24T06:38:50;17.03;;;8.90;;
17991;SDS011;9121;50.926;5.340;2023-04-24T06:41:17;19.50;;;9.90;;
17991;SDS011;9121;50.926;5.340;2023-04-24T06:43:44;21.23;;;10.67;;
17991;SDS011;9121;50.926;5.340;2023-04-24T06:46:11;20.50;;;10.83;;
17991;SDS011;9121;50.926;5.340;2023-04-24T06:48:38;16.73;;;9.30;;
17991;SDS011;9121;50.926;5.340;2023-04-24T06:51:07;18.03;;;9.33;;
17991;SDS011;9121;50.926;5.340;2023-04-24T06:53:34;19.07;;;9.43;;
17991;SDS011;9121;50.926;5.340;2023-04-24T06:56:01;24.00;;;9.57;;
17991;SDS011;9121;50.926;5.340;2023-04-24T06:58:28;19.63;;;9.50;;
17991;SDS011;9121;50.926;5.340;2023-04-24T07:00:57;20.00;;;10.67;;
17991;SDS011;9121;50.926;5.340;2023-04-24T07:03:24;23.40;;;10.83;;
17991;SDS011;9121;50.926;5.340;2023-04-24T07:05:51;22.40;;;11.33;;
17991;SDS011;9121;50.926;5.340;2023-04-24T07:08:21;26.43;;;11.77;;
17991;SDS011;9121;50.926;5.340;2023-04-24T07:10:48;21.13;;;11.13;;
17991;SDS011;9121;50.926;5.340;2023-04-24T07:13:16;28.03;;;13.03;;
17991;SDS011;9121;50.926;5.340;2023-04-24T07:15:43;27.23;;;13.13;;
17991;SDS011;9121;50.926;5.340;2023-04-24T07:18:10;27.93;;;12.73;;
17991;SDS011;9121;50.926;5.340;2023-04-24T07:20:39;30.67;;;13.20;;
17991;SDS011;9121;50.926;5.340;2023-04-24T07:23:06;26.97;;;12.03;;
17991;SDS011;9121;50.926;5.340;2023-04-24T07:25:34;25.90;;;14.30;;
17991;SDS011;9121;50.926;5.340;2023-04-24T07:28:01;25.60;;;13.33;;
17991;SDS011;9121;50.926;5.340;2023-04-24T07:30:29;27.83;;;12.70;;
17991;SDS011;9121;50.926;5.340;2023-04-24T07:32:58;28.30;;;13.47;;
17991;SDS011;9121;50.926;5.340;2023-04-24T07:35:24;25.73;;;12.50;;
17991;SDS011;9121;50.926;5.340;2023-04-24T07:37:52;25.63;;;13.07;;
17991;SDS011;9121;50.926;5.340;2023-04-24T07:40:19;28.67;;;13.53;;
17991;SDS011;9121;50.926;5.340;2023-04-24T07:42:48;25.03;;;13.57;;
17991;SDS011;9121;50.926;5.340;2023-04-24T07:45:15;26.80;;;13.33;;
17991;SDS011;9121;50.926;5.340;2023-04-24T07:47:43;25.33;;;14.20;;
17991;SDS011;9121;50.926;5.340;2023-04-24T07:50:10;28.63;;;13.87;;
17991;SDS011;9121;50.926;5.340;2023-04-24T07:52:38;22.53;;;13.10;;
17991;SDS011;9121;50.926;5.340;2023-04-24T07:55:05;32.63;;;14.10;;
17991;SDS011;9121;50.926;5.340;2023-04-24T07:57:32;30.13;;;15.53;;
17991;SDS011;9121;50.926;5.340;2023-04-24T08:00:00;32.17;;;15.43;;
17991;SDS011;9121;50.926;5.340;2023-04-24T08:02:28;31.33;;;16.13;;
17991;SDS011;9121;50.926;5.340;2023-04-24T08:04:55;33.17;;;17.10;;
17991;SDS011;9121;50.926;5.340;2023-04-24T08:07:22;33.37;;;15.43;;
17991;SDS011;9121;50.926;5.340;2023-04-24T08:09:49;31.80;;;16.57;;
17991;SDS011;9121;50.926;5.340;2023-04-24T08:12:16;33.87;;;16.00;;
17991;SDS011;9121;50.926;5.340;2023-04-24T08:14:43;28.30;;;14.80;;
17991;SDS011;9121;50.926;5.340;2023-04-24T08:17:11;31.20;;;15.07;;
17991;SDS011;9121;50.926;5.340;2023-04-24T08:19:39;32.03;;;14.23;;
17991;SDS011;9121;50.926;5.340;2023-04-24T08:22:08;31.50;;;14.60;;
17991;SDS011;9121;50.926;5.340;2023-04-24T08:24:35;28.93;;;14.20;;
17991;SDS011;9121;50.926;5.340;2023-04-24T08:27:02;31.07;;;14.47;;
17991;SDS011;9121;50.926;5.340;2023-04-24T08:29:29;27.10;;;14.60;;
17991;SDS011;9121;50.926;5.340;2023-04-24T08:31:56;27.77;;;13.47;;
17991;SDS011;9121;50.926;5.340;2023-04-24T08:34:25;21.80;;;12.37;;
17991;SDS011;9121;50.926;5.340;2023-04-24T08:36:51;26.27;;;13.00;;
17991;SDS011;9121;50.926;5.340;2023-04-24T08:39:18;30.23;;;12.60;;
17991;SDS011;9121;50.926;5.340;2023-04-24T08:41:46;24.73;;;12.07;;
17991;SDS011;9121;50.926;5.340;2023-04-24T08:44:15;24.60;;;9.87;;
17991;SDS011;9121;50.926;5.340;2023-04-24T08:46:43;21.37;;;9.50;;
17991;SDS011;9121;50.926;5.340;2023-04-24T08:49:12;19.97;;;8.40;;
17991;SDS011;9121;50.926;5.340;2023-04-24T08:51:42;19.30;;;7.63;;
17991;SDS011;9121;50.926;5.340;2023-04-24T08:54:12;22.30;;;8.30;;
17991;SDS011;9121;50.926;5.340;2023-04-24T08:56:39;25.60;;;8.10;;
17991;SDS011;9121;50.926;5.340;2023-04-24T08:59:09;17.17;;;6.47;;
17991;SDS011;9121;50.926;5.340;2023-04-24T09:01:37;22.20;;;7.83;;
17991;SDS011;9121;50.926;5.340;2023-04-24T09:04:06;20.80;;;7.30;;
17991;SDS011;9121;50.926;5.340;2023-04-24T09:06:35;19.83;;;7.27;;
17991;SDS011;9121;50.926;5.340;2023-04-24T09:09:04;17.57;;;6.83;;
17991;SDS011;9121;50.926;5.340;2023-04-24T09:11:31;19.70;;;6.43;;
17991;SDS011;9121;50.926;5.340;2023-04-24T09:13:58;30.40;;;10.03;;
17991;SDS011;9121;50.926;5.340;2023-04-24T09:16:26;15.57;;;5.53;;
17991;SDS011;9121;50.926;5.340;2023-04-24T09:18:54;16.97;;;5.97;;
17991;SDS011;9121;50.926;5.340;2023-04-24T09:21:22;19.10;;;6.40;;
17991;SDS011;9121;50.926;5.340;2023-04-24T09:23:57;17.50;;;5.70;;
17991;SDS011;9121;50.926;5.340;2023-04-24T09:26:26;23.57;;;7.10;;
17991;SDS011;9121;50.926;5.340;2023-04-24T09:28:57;21.93;;;6.87;;
17991;SDS011;9121;50.926;5.340;2023-04-24T09:31:26;19.23;;;7.00;;
17991;SDS011;9121;50.926;5.340;2023-04-24T09:33:55;15.00;;;6.47;;
17991;SDS011;9121;50.926;5.340;2023-04-24T09:36:29;21.10;;;7.27;;
17991;SDS011;9121;50.926;5.340;2023-04-24T09:38:59;18.80;;;7.23;;
17991;SDS011;9121;50.926;5.340;2023-04-24T09:41:28;20.77;;;8.33;;
17991;SDS011;9121;50.926;5.340;2023-04-24T09:43:55;20.53;;;7.97;;
17991;SDS011;9121;50.926;5.340;2023-04-24T09:46:28;25.27;;;9.13;;
17991;SDS011;9121;50.926;5.340;2023-04-24T09:48:57;22.27;;;7.80;;
17991;SDS011;9121;50.926;5.340;2023-04-24T09:51:34;22.57;;;8.10;;
17991;SDS011;9121;50.926;5.340;2023-04-24T09:54:03;20.10;;;7.50;;
17991;SDS011;9121;50.926;5.340;2023-04-24T09:56:33;22.57;;;7.00;;
17991;SDS011;9121;50.926;5.340;2023-04-24T09:59:06;20.00;;;7.30;;
17991;SDS011;9121;50.926;5.340;2023-04-24T10:01:34;24.17;;;7.93;;
17991;SDS011;9121;50.926;5.340;2023-04-24T10:04:01;22.10;;;8.80;;
17991;SDS011;9121;50.926;5.340;2023-04-24T10:06:32;19.30;;;7.43;;
17991;SDS011;9121;50.926;5.340;2023-04-24T10:09:00;20.07;;;8.17;;
17991;SDS011;9121;50.926;5.340;2023-04-24T10:11:28;23.10;;;7.57;;
17991;SDS011;9121;50.926;5.340;2023-04-24T10:13:58;14.88;;;6.40;;
17991;SDS011;9121;50.926;5.340;2023-04-24T10:16:25;18.83;;;7.45;;
17991;SDS011;9121;50.926;5.340;2023-04-24T10:18:53;20.13;;;6.13;;
17991;SDS011;9121;50.926;5.340;2023-04-24T10:21:21;14.52;;;6.10;;
17991;SDS011;9121;50.926;5.340;2023-04-24T10:23:48;16.87;;;6.63;;
17991;SDS011;9121;50.926;5.340;2023-04-24T10:26:16;15.23;;;5.87;;
17991;SDS011;9121;50.926;5.340;2023-04-24T10:28:44;18.57;;;6.57;;
17991;SDS011;9121;50.926;5.340;2023-04-24T10:31:13;14.63;;;6.60;;
17991;SDS011;9121;50.926;5.340;2023-04-24T10:33:41;13.73;;;6.30;;
17991;SDS011;9121;50.926;5.340;2023-04-24T10:36:09;20.05;;;6.53;;
17991;SDS011;9121;50.926;5.340;2023-04-24T10:38:37;16.43;;;7.47;;
17991;SDS011;9121;50.926;5.340;2023-04-24T10:41:06;25.15;;;8.35;;
17991;SDS011;9121;50.926;5.340;2023-04-24T10:43:35;14.23;;;6.63;;
17991;SDS011;9121;50.926;5.340;2023-04-24T10:46:03;18.40;;;6.35;;
17991;SDS011;9121;50.926;5.340;2023-04-24T10:48:33;10.50;;;5.28;;
17991;SDS011;9121;50.926;5.340;2023-04-24T10:51:00;14.80;;;5.72;;
17991;SDS011;9121;50.926;5.340;2023-04-24T10:53:28;14.77;;;4.95;;
17991;SDS011;9121;50.926;5.340;2023-04-24T10:56:00;15.13;;;5.80;;
17991;SDS011;9121;50.926;5.340;2023-04-24T10:58:40;12.13;;;5.25;;
17991;SDS011;9121;50.926;5.340;2023-04-24T11:01:11;17.95;;;6.43;;
17991;SDS011;9121;50.926;5.340;2023-04-24T11:03:54;20.47;;;5.80;;
17991;SDS011;9121;50.926;5.340;2023-04-24T11:06:28;16.07;;;6.53;;
17991;SDS011;9121;50.926;5.340;2023-04-24T11:08:59;17.45;;;6.57;;
17991;SDS011;9121;50.926;5.340;2023-04-24T11:11:29;18.67;;;5.33;;
17991;SDS011;9121;50.926;5.340;2023-04-24T11:14:03;15.75;;;5.65;;
17991;SDS011;9121;50.926;5.340;2023-04-24T11:16:32;15.60;;;5.57;;
17991;SDS011;9121;50.926;5.340;2023-04-24T11:19:03;10.40;;;5.10;;
17991;SDS011;9121;50.926;5.340;2023-04-24T11:21:31;19.77;;;6.93;;
17991;SDS011;9121;50.926;5.340;2023-04-24T11:26:57;16.63;;;4.80;;
17991;SDS011;9121;50.926;5.340;2023-04-24T11:29:39;12.10;;;4.60;;
17991;SDS011;9121;50.926;5.340;2023-04-24T11:32:17;9.57;;;4.30;;
17991;SDS011;9121;50.926;5.340;2023-04-24T11:34:53;14.52;;;4.53;;
17991;SDS011;9121;50.926;5.340;2023-04-24T11:37:21;11.63;;;4.03;;
17991;SDS011;9121;50.926;5.340;2023-04-24T11:39:50;11.63;;;4.47;;
17991;SDS011;9121;50.926;5.340;2023-04-24T11:42:21;14.45;;;5.00;;
17991;SDS011;9121;50.926;5.340;2023-04-24T11:44:49;18.08;;;4.70;;
17991;SDS011;9121;50.926;5.340;2023-04-24T11:47:18;9.25;;;4.18;;
17991;SDS011;9121;50.926;5.340;2023-04-24T11:49:45;8.80;;;4.60;;
17991;SDS011;9121;50.926;5.340;2023-04-24T11:52:16;11.98;;;4.65;;
17991;SDS011;9121;50.926;5.340;2023-04-24T11:54:47;13.60;;;4.20;;
17991;SDS011;9121;50.926;5.340;2023-04-24T11:57:15;10.30;;;4.97;;
17991;SDS011;9121;50.926;5.340;2023-04-24T11:59:42;12.63;;;5.40;;
17991;SDS011;9121;50.926;5.340;2023-04-24T12:02:09;13.02;;;4.50;;
17991;SDS011;9121;50.926;5.340;2023-04-24T12:04:46;16.40;;;5.03;;
17991;SDS011;9121;50.926;5.340;2023-04-24T12:07:13;13.88;;;4.78;;
17991;SDS011;9121;50.926;5.340;2023-04-24T12:09:42;15.80;;;4.97;;
17991;SDS011;9121;50.926;5.340;2023-04-24T12:12:10;14.70;;;4.95;;
17991;SDS011;9121;50.926;5.340;2023-04-24T12:14:44;11.00;;;4.03;;
17991;SDS011;9121;50.926;5.340;2023-04-24T12:17:13;5.72;;;3.10;;
17991;SDS011;9121;50.926;5.340;2023-04-24T12:19:44;6.55;;;3.10;;
17991;SDS011;9121;50.926;5.340;2023-04-24T12:22:12;12.43;;;3.42;;
17991;SDS011;9121;50.926;5.340;2023-04-24T12:24:56;8.95;;;4.18;;
17991;SDS011;9121;50.926;5.340;2023-04-24T12:27:25;5.25;;;3.10;;
17991;SDS011;9121;50.926;5.340;2023-04-24T12:29:53;8.20;;;3.28;;
17991;SDS011;9121;50.926;5.340;2023-04-24T12:32:21;7.45;;;3.10;;
17991;SDS011;9121;50.926;5.340;2023-04-24T12:34:49;6.43;;;3.33;;
17991;SDS011;9121;50.926;5.340;2023-04-24T12:37:17;7.68;;;3.30;;
17991;SDS011;9121;50.926;5.340;2023-04-24T12:39:45;7.28;;;3.28;;
17991;SDS011;9121;50.926;5.340;2023-04-24T12:42:30;9.23;;;3.85;;
17991;SDS011;9121;50.926;5.340;2023-04-24T12:44:57;8.45;;;3.55;;
17991;SDS011;9121;50.926;5.340;2023-04-24T12:47:26;10.15;;;3.67;;
17991;SDS011;9121;50.926;5.340;2023-04-24T12:49:53;9.77;;;3.90;;
17991;SDS011;9121;50.926;5.340;2023-04-24T12:52:20;7.65;;;2.90;;
17991;SDS011;9121;50.926;5.340;2023-04-24T12:54:48;8.93;;;3.30;;
17991;SDS011;9121;50.926;5.340;2023-04-24T12:57:17;9.27;;;3.70;;
17991;SDS011;9121;50.926;5.340;2023-04-24T12:59:44;7.20;;;3.55;;
17991;SDS011;9121;50.926;5.340;2023-04-24T13:02:11;9.27;;;3.42;;
17991;SDS011;9121;50.926;5.340;2023-04-24T13:04:39;7.90;;;3.30;;
17991;SDS011;9121;50.926;5.340;2023-04-24T13:07:06;9.65;;;4.05;;
17991;SDS011;9121;50.926;5.340;2023-04-24T13:09:33;9.50;;;3.63;;
17991;SDS011;9121;50.926;5.340;2023-04-24T13:12:01;12.05;;;4.30;;
17991;SDS011;9121;50.926;5.340;2023-04-24T13:14:29;11.52;;;3.80;;
17991;SDS011;9121;50.926;5.340;2023-04-24T13:16:56;12.77;;;4.40;;
17991;SDS011;9121;50.926;5.340;2023-04-24T13:19:24;9.55;;;3.72;;
17991;SDS011;9121;50.926;5.340;2023-04-24T13:21:51;7.68;;;3.85;;
17991;SDS011;9121;50.926;5.340;2023-04-24T13:24:18;6.55;;;3.60;;
17991;SDS011;9121;50.926;5.340;2023-04-24T13:26:45;10.55;;;4.03;;
17991;SDS011;9121;50.926;5.340;2023-04-24T13:29:13;7.93;;;3.60;;
17991;SDS011;9121;50.926;5.340;2023-04-24T13:31:41;9.88;;;4.05;;
17991;SDS011;9121;50.926;5.340;2023-04-24T13:34:08;9.40;;;3.78;;
17991;SDS011;9121;50.926;5.340;2023-04-24T13:36:35;14.32;;;4.50;;
17991;SDS011;9121;50.926;5.340;2023-04-24T13:39:02;8.80;;;4.07;;
17991;SDS011;9121;50.926;5.340;2023-04-24T13:41:32;6.53;;;3.42;;
17991;SDS011;9121;50.926;5.340;2023-04-24T13:44:00;8.45;;;3.80;;
17991;SDS011;9121;50.926;5.340;2023-04-24T13:46:27;14.65;;;4.57;;
17991;SDS011;9121;50.926;5.340;2023-04-24T13:48:55;8.75;;;3.95;;
17991;SDS011;9121;50.926;5.340;2023-04-24T13:51:23;7.53;;;3.67;;
17991;SDS011;9121;50.926;5.340;2023-04-24T13:53:52;8.88;;;3.55;;
17991;SDS011;9121;50.926;5.340;2023-04-24T13:56:18;9.25;;;4.32;;
17991;SDS011;9121;50.926;5.340;2023-04-24T13:58:46;10.75;;;4.32;;
17991;SDS011;9121;50.926;5.340;2023-04-24T14:01:13;10.50;;;4.25;;
17991;SDS011;9121;50.926;5.340;2023-04-24T14:03:40;12.18;;;4.57;;
17991;SDS011;9121;50.926;5.340;2023-04-24T14:06:09;9.32;;;3.78;;
17991;SDS011;9121;50.926;5.340;2023-04-24T14:08:36;8.52;;;3.75;;
17991;SDS011;9121;50.926;5.340;2023-04-24T14:11:03;14.60;;;4.70;;
17991;SDS011;9121;50.926;5.340;2023-04-24T14:13:30;6.10;;;3.53;;
17991;SDS011;9121;50.926;5.340;2023-04-24T14:15:58;9.00;;;3.75;;
17991;SDS011;9121;50.926;5.340;2023-04-24T14:18:25;6.60;;;3.22;;
17991;SDS011;9121;50.926;5.340;2023-04-24T14:20:52;12.70;;;3.85;;
17991;SDS011;9121;50.926;5.340;2023-04-24T14:23:20;6.22;;;2.80;;
17991;SDS011;9121;50.926;5.340;2023-04-24T14:25:47;5.75;;;2.95;;
17991;SDS011;9121;50.926;5.340;2023-04-24T14:28:16;6.30;;;2.78;;
17991;SDS011;9121;50.926;5.340;2023-04-24T14:30:44;5.90;;;3.13;;
17991;SDS011;9121;50.926;5.340;2023-04-24T14:33:11;5.93;;;3.70;;
17991;SDS011;9121;50.926;5.340;2023-04-24T14:35:38;5.65;;;2.90;;
17991;SDS011;9121;50.926;5.340;2023-04-24T14:38:07;5.32;;;3.33;;
17991;SDS011;9121;50.926;5.340;2023-04-24T14:40:35;9.05;;;3.00;;
17991;SDS011;9121;50.926;5.340;2023-04-24T14:43:02;7.10;;;3.50;;
17991;SDS011;9121;50.926;5.340;2023-04-24T14:45:29;10.68;;;3.20;;
17991;SDS011;9121;50.926;5.340;2023-04-24T14:47:57;8.63;;;3.75;;
17991;SDS011;9121;50.926;5.340;2023-04-24T14:50:24;10.57;;;3.53;;